Daisinmaru No.11 — JK5352 — position and weather

sailwx.info

Track history (hours):
 
Tides and Currents Weather Stations Pressure Air Temp Water Temp Dewpoint Dewpoint Depression Visibility Wind Speed Wind Dir Waves Ship Positions

Daisinmaru No.11

Last reported at 2015-Jan-28 06:33 UTC. Time now 2015-Feb-02 01:49 UTC.
Position N 35°30' E 139°46'.

Length 52 m; draft 5.2 m.

Type: Cargo ship. MMSI: 431000667.

Date/timePositionNaut miles runAvg speedWind from/ knotsBaromVisibWave heightAir tempDewpointWater temp
2015-Jan-28 06:33N 35°30' E 139°46'3 3.2
2015-Jan-28 05:33N 35°29' E 139°43'0 0.0
2015-Jan-28 04:34N 35°29' E 139°43'0 0.0
2015-Jan-28 03:33N 35°29' E 139°43'3 3.2
2015-Jan-28 02:33N 35°30' E 139°46'5 0.2
2015-Jan-27 04:29N 35°31' E 139°53'8 9.0
2015-Jan-27 03:33N 35°29' E 139°43'0 0.3
2015-Jan-27 02:34N 35°29' E 139°43'0 0.0
2015-Jan-27 01:33N 35°29' E 139°43'4 4.4
2015-Jan-27 00:34N 35°30' E 139°48'  
2015-Jan-24 08:22N 35°30' E 139°46'3 4.0
2015-Jan-24 07:33N 35°29' E 139°43'0 0.0
2015-Jan-24 06:33N 35°29' E 139°43'0 0.1
2015-Jan-24 05:33N 35°29' E 139°43'2 2.2
2015-Jan-24 04:33N 35°30' E 139°45'1010.1
2015-Jan-24 03:33N 35°32' E 139°57'7 0.2
2015-Jan-22 04:32N 35°30' E 139°49'5 5.1
2015-Jan-22 03:34N 35°29' E 139°43'0 0.0
2015-Jan-22 02:33N 35°29' E 139°43'0 0.0
2015-Jan-22 01:33N 35°29' E 139°43'5 5.3
2015-Jan-22 00:32N 35°30' E 139°49'1 0.1
2015-Jan-21 09:09N 35°30' E 139°48'4 7.1
2015-Jan-21 08:33N 35°29' E 139°43'0 0.0
2015-Jan-21 07:33N 35°29' E 139°43'0 0.0
2015-Jan-21 06:33N 35°29' E 139°43'0 0.1
2015-Jan-21 05:33N 35°29' E 139°43'3 3.4
2015-Jan-21 04:33N 35°30' E 139°47'10 9.5
2015-Jan-21 03:30N 35°29' E 139°59'2 0.1
2015-Jan-20 09:16N 35°29' E 139°57'6 8.6
2015-Jan-20 08:33N 35°28' E 139°49'8 8.4
2015-Jan-20 07:33N 35°28' E 139°39'0 0.1
2015-Jan-20 06:33N 35°28' E 139°39'0 0.0
2015-Jan-20 05:33N 35°28' E 139°39'0 0.0
2015-Jan-20 04:33N 35°28' E 139°39'0 0.0
2015-Jan-20 03:33N 35°28' E 139°39'0 0.0
2015-Jan-20 02:33N 35°28' E 139°39'0 0.0
2015-Jan-20 01:33N 35°28' E 139°39'0 0.0
2015-Jan-20 00:34N 35°28' E 139°39'0 0.0
2015-Jan-19 23:33N 35°28' E 139°39'3 3.3
2015-Jan-19 22:33N 35°27' E 139°43'1110.8
2015-Jan-19 21:33N 35°29' E 139°56'2 0.1
2015-Jan-19 00:20N 35°29' E 139°58'2 2.6
2015-Jan-18 23:32N 35°27' E 139°57'  
Track history (hours):
 
Tides and Currents Weather Stations Pressure Air Temp Water Temp Dewpoint Dewpoint Depression Visibility Wind Speed Wind Dir Waves Ship Positions

Daisinmaru No.11

Last reported at 2015-Jan-28 06:33 UTC. Time now 2015-Feb-02 01:49 UTC.
Position N 35°30' E 139°46'.

Length 52 m; draft 5.2 m.

Type: Cargo ship. MMSI: 431000667.

Date/timePositionNaut miles runAvg speedWind from/ knotsBaromVisibWave heightAir tempDewpointWater temp
2015-Jan-28 06:33N 35°30' E 139°46'3 3.2
2015-Jan-28 05:33N 35°29' E 139°43'0 0.0
2015-Jan-28 04:34N 35°29' E 139°43'0 0.0
2015-Jan-28 03:33N 35°29' E 139°43'3 3.2
2015-Jan-28 02:33N 35°30' E 139°46'5 0.2
2015-Jan-27 04:29N 35°31' E 139°53'8 9.0
2015-Jan-27 03:33N 35°29' E 139°43'0 0.3
2015-Jan-27 02:34N 35°29' E 139°43'0 0.0
2015-Jan-27 01:33N 35°29' E 139°43'4 4.4
2015-Jan-27 00:34N 35°30' E 139°48'  
2015-Jan-24 08:22N 35°30' E 139°46'3 4.0
2015-Jan-24 07:33N 35°29' E 139°43'0 0.0
2015-Jan-24 06:33N 35°29' E 139°43'0 0.1
2015-Jan-24 05:33N 35°29' E 139°43'2 2.2
2015-Jan-24 04:33N 35°30' E 139°45'1010.1
2015-Jan-24 03:33N 35°32' E 139°57'7 0.2
2015-Jan-22 04:32N 35°30' E 139°49'5 5.1
2015-Jan-22 03:34N 35°29' E 139°43'0 0.0
2015-Jan-22 02:33N 35°29' E 139°43'0 0.0
2015-Jan-22 01:33N 35°29' E 139°43'5 5.3
2015-Jan-22 00:32N 35°30' E 139°49'1 0.1
2015-Jan-21 09:09N 35°30' E 139°48'4 7.1
2015-Jan-21 08:33N 35°29' E 139°43'0 0.0
2015-Jan-21 07:33N 35°29' E 139°43'0 0.0
2015-Jan-21 06:33N 35°29' E 139°43'0 0.1
2015-Jan-21 05:33N 35°29' E 139°43'3 3.4
2015-Jan-21 04:33N 35°30' E 139°47'10 9.5
2015-Jan-21 03:30N 35°29' E 139°59'2 0.1
2015-Jan-20 09:16N 35°29' E 139°57'6 8.6
2015-Jan-20 08:33N 35°28' E 139°49'8 8.4
2015-Jan-20 07:33N 35°28' E 139°39'0 0.1
2015-Jan-20 06:33N 35°28' E 139°39'0 0.0
2015-Jan-20 05:33N 35°28' E 139°39'0 0.0
2015-Jan-20 04:33N 35°28' E 139°39'0 0.0
2015-Jan-20 03:33N 35°28' E 139°39'0 0.0
2015-Jan-20 02:33N 35°28' E 139°39'0 0.0
2015-Jan-20 01:33N 35°28' E 139°39'0 0.0
2015-Jan-20 00:34N 35°28' E 139°39'0 0.0
2015-Jan-19 23:33N 35°28' E 139°39'3 3.3
2015-Jan-19 22:33N 35°27' E 139°43'1110.8
2015-Jan-19 21:33N 35°29' E 139°56'2 0.1
2015-Jan-19 00:20N 35°29' E 139°58'2 2.6
2015-Jan-18 23:32N 35°27' E 139°57'  

Dump ship's entire track history